sensor_id;sensor_type;location;lat;lon;timestamp;pressure;altitude;pressure_sealevel;temperature;humidity
49397;BME280;35615;41.410;2.194;2023-04-23T00:00:06;101214.66;;;21.15;57.89
49397;BME280;35615;41.410;2.194;2023-04-23T00:02:43;101199.78;;;21.11;58.46
49397;BME280;35615;41.410;2.194;2023-04-23T00:05:14;101204.06;;;20.82;59.74
49397;BME280;35615;41.410;2.194;2023-04-23T00:07:47;101205.00;;;21.02;59.23
49397;BME280;35615;41.410;2.194;2023-04-23T00:10:20;101200.63;;;21.01;59.60
49397;BME280;35615;41.410;2.194;2023-04-23T00:12:54;101199.75;;;20.99;60.06
49397;BME280;35615;41.410;2.194;2023-04-23T00:15:25;101203.25;;;21.04;59.48
49397;BME280;35615;41.410;2.194;2023-04-23T00:17:53;101200.63;;;21.04;59.84
49397;BME280;35615;41.410;2.194;2023-04-23T00:20:20;101206.75;;;21.02;60.03
49397;BME280;35615;41.410;2.194;2023-04-23T00:22:48;101202.34;;;20.95;60.84
49397;BME280;35615;41.410;2.194;2023-04-23T00:25:18;101205.84;;;20.89;61.18
49397;BME280;35615;41.410;2.194;2023-04-23T00:27:46;101208.53;;;21.03;60.54
49397;BME280;35615;41.410;2.194;2023-04-23T00:30:13;101197.97;;;20.89;61.01
49397;BME280;35615;41.410;2.194;2023-04-23T00:32:42;101194.47;;;20.93;61.43
49397;BME280;35615;41.410;2.194;2023-04-23T00:35:11;101193.59;;;20.89;61.46
49397;BME280;35615;41.410;2.194;2023-04-23T00:37:38;101188.31;;;20.83;61.37
49397;BME280;35615;41.410;2.194;2023-04-23T00:40:06;101188.34;;;20.94;60.70
49397;BME280;35615;41.410;2.194;2023-04-23T00:42:34;101186.59;;;20.93;60.25
49397;BME280;35615;41.410;2.194;2023-04-23T00:45:02;101185.72;;;20.93;59.35
49397;BME280;35615;41.410;2.194;2023-04-23T00:47:29;101192.63;;;20.58;59.51
49397;BME280;35615;41.410;2.194;2023-04-23T00:49:58;101196.06;;;20.48;59.40
49397;BME280;35615;41.410;2.194;2023-04-23T00:52:25;101197.06;;;20.75;58.21
49397;BME280;35615;41.410;2.194;2023-04-23T00:54:54;101198.72;;;20.54;58.79
49397;BME280;35615;41.410;2.194;2023-04-23T00:57:22;101195.25;;;20.57;58.79
49397;BME280;35615;41.410;2.194;2023-04-23T00:59:49;101201.22;;;20.33;59.64
49397;BME280;35615;41.410;2.194;2023-04-23T01:02:17;101196.97;;;20.58;58.98
49397;BME280;35615;41.410;2.194;2023-04-23T01:04:46;101206.66;;;20.68;58.85
49397;BME280;35615;41.410;2.194;2023-04-23T01:07:17;101205.78;;;20.66;58.90
49397;BME280;35615;41.410;2.194;2023-04-23T01:09:44;101200.38;;;20.40;59.83
49397;BME280;35615;41.410;2.194;2023-04-23T01:12:15;101209.19;;;20.48;59.26
49397;BME280;35615;41.410;2.194;2023-04-23T01:14:43;101212.69;;;20.46;59.63
49397;BME280;35615;41.410;2.194;2023-04-23T01:17:11;101211.81;;;20.45;59.25
49397;BME280;35615;41.410;2.194;2023-04-23T01:19:39;101215.31;;;20.43;59.52
49397;BME280;35615;41.410;2.194;2023-04-23T01:22:13;101216.09;;;20.34;59.67
49397;BME280;35615;41.410;2.194;2023-04-23T01:24:41;101206.47;;;20.31;59.49
49397;BME280;35615;41.410;2.194;2023-04-23T01:27:09;101207.34;;;20.32;59.36
49397;BME280;35615;41.410;2.194;2023-04-23T01:29:40;101196.72;;;20.14;59.89
49397;BME280;35615;41.410;2.194;2023-04-23T01:32:08;101207.22;;;20.15;59.90
49397;BME280;35615;41.410;2.194;2023-04-23T01:34:37;101198.47;;;20.16;59.58
49397;BME280;35615;41.410;2.194;2023-04-23T01:37:06;101194.09;;;20.08;60.12
49397;BME280;35615;41.410;2.194;2023-04-23T01:39:33;101194.91;;;20.05;60.52
49397;BME280;35615;41.410;2.194;2023-04-23T01:42:02;101194.16;;;20.26;59.84
49397;BME280;35615;41.410;2.194;2023-04-23T01:44:29;101189.84;;;20.31;59.41
49397;BME280;35615;41.410;2.194;2023-04-23T01:46:56;101193.28;;;20.25;59.36
49397;BME280;35615;41.410;2.194;2023-04-23T01:49:24;101191.69;;;20.43;58.96
49397;BME280;35615;41.410;2.194;2023-04-23T01:51:51;101195.09;;;20.37;58.78
49397;BME280;35615;41.410;2.194;2023-04-23T01:54:18;101188.97;;;20.34;58.89
49397;BME280;35615;41.410;2.194;2023-04-23T01:56:48;101187.28;;;20.40;58.71
49397;BME280;35615;41.410;2.194;2023-04-23T01:59:15;101191.69;;;20.46;58.48
49397;BME280;35615;41.410;2.194;2023-04-23T02:01:46;101189.06;;;20.49;57.98
49397;BME280;35615;41.410;2.194;2023-04-23T02:04:14;101197.84;;;20.57;57.95
49397;BME280;35615;41.410;2.194;2023-04-23T02:06:46;101200.47;;;20.55;57.67
49397;BME280;35615;41.410;2.194;2023-04-23T02:09:14;101195.19;;;20.49;57.83
49397;BME280;35615;41.410;2.194;2023-04-23T02:11:41;101193.50;;;20.57;57.74
49397;BME280;35615;41.410;2.194;2023-04-23T02:14:09;101190.91;;;20.62;57.55
49397;BME280;35615;41.410;2.194;2023-04-23T02:16:36;101187.41;;;20.71;57.11
49397;BME280;35615;41.410;2.194;2023-04-23T02:19:04;101187.41;;;20.66;57.40
49397;BME280;35615;41.410;2.194;2023-04-23T02:21:31;101193.50;;;20.59;57.35
49397;BME280;35615;41.410;2.194;2023-04-23T02:24:00;101191.81;;;20.73;56.79
49397;BME280;35615;41.410;2.194;2023-04-23T02:26:28;101199.66;;;20.70;57.20
49397;BME280;35615;41.410;2.194;2023-04-23T02:28:55;101197.94;;;20.74;56.57
49397;BME280;35615;41.410;2.194;2023-04-23T02:31:22;101203.19;;;20.80;56.57
49397;BME280;35615;41.410;2.194;2023-04-23T02:33:50;101203.19;;;20.75;56.60
49397;BME280;35615;41.410;2.194;2023-04-23T02:36:17;101204.03;;;20.71;57.04
49397;BME280;35615;41.410;2.194;2023-04-23T02:38:44;101197.94;;;20.80;56.29
49397;BME280;35615;41.410;2.194;2023-04-23T02:41:14;101204.94;;;20.78;56.54
49397;BME280;35615;41.410;2.194;2023-04-23T02:43:41;101204.06;;;20.74;56.56
49397;BME280;35615;41.410;2.194;2023-04-23T02:46:08;101199.69;;;20.76;56.78
49397;BME280;35615;41.410;2.194;2023-04-23T02:48:40;101205.78;;;20.65;56.69
49397;BME280;35615;41.410;2.194;2023-04-23T02:51:10;101207.56;;;20.82;56.64
49397;BME280;35615;41.410;2.194;2023-04-23T02:53:38;101206.69;;;20.80;56.43
49397;BME280;35615;41.410;2.194;2023-04-23T02:56:05;101211.13;;;20.87;56.55
49397;BME280;35615;41.410;2.194;2023-04-23T02:58:34;101204.09;;;20.85;56.23
49397;BME280;35615;41.410;2.194;2023-04-23T03:01:01;101199.72;;;20.88;56.40
49397;BME280;35615;41.410;2.194;2023-04-23T03:03:30;101202.34;;;20.92;56.16
49397;BME280;35615;41.410;2.194;2023-04-23T03:06:01;101200.63;;;20.95;55.85
49397;BME280;35615;41.410;2.194;2023-04-23T03:08:28;101196.22;;;20.91;55.71
49397;BME280;35615;41.410;2.194;2023-04-23T03:10:55;101205.00;;;20.96;55.95
49397;BME280;35615;41.410;2.194;2023-04-23T03:13:23;101206.72;;;20.91;55.61
49397;BME280;35615;41.410;2.194;2023-04-23T03:15:52;101201.50;;;20.99;55.48
49397;BME280;35615;41.410;2.194;2023-04-23T03:18:24;101212.00;;;20.91;55.56
49397;BME280;35615;41.410;2.194;2023-04-23T03:20:55;101214.56;;;20.83;55.71
49397;BME280;35615;41.410;2.194;2023-04-23T03:23:23;101215.44;;;20.76;55.88
49397;BME280;35615;41.410;2.194;2023-04-23T03:25:50;101212.88;;;20.85;55.45
49397;BME280;35615;41.410;2.194;2023-04-23T03:28:17;101215.44;;;20.81;55.95
49397;BME280;35615;41.410;2.194;2023-04-23T03:30:44;101219.88;;;20.91;55.54
49397;BME280;35615;41.410;2.194;2023-04-23T03:33:11;101216.38;;;20.84;56.01
49397;BME280;35615;41.410;2.194;2023-04-23T03:35:39;101225.09;;;20.82;55.97
49397;BME280;35615;41.410;2.194;2023-04-23T03:38:10;101225.97;;;20.81;55.91
49397;BME280;35615;41.410;2.194;2023-04-23T03:40:39;101220.75;;;20.85;55.91
49397;BME280;35615;41.410;2.194;2023-04-23T03:43:08;101216.31;;;20.83;55.85
49397;BME280;35615;41.410;2.194;2023-04-23T03:46:07;101218.94;;;20.77;56.04
49397;BME280;35615;41.410;2.194;2023-04-23T03:48:38;101212.00;;;20.85;55.89
49397;BME280;35615;41.410;2.194;2023-04-23T03:51:10;101214.63;;;20.88;55.77
49397;BME280;35615;41.410;2.194;2023-04-23T03:53:44;101208.50;;;20.86;55.35
49397;BME280;35615;41.410;2.194;2023-04-23T03:56:32;101212.00;;;20.91;55.31
49397;BME280;35615;41.410;2.194;2023-04-23T03:59:13;101213.75;;;20.91;55.25
49397;BME280;35615;41.410;2.194;2023-04-23T04:01:43;101211.06;;;20.83;54.98
49397;BME280;35615;41.410;2.194;2023-04-23T04:04:10;101212.00;;;20.86;54.73
49397;BME280;35615;41.410;2.194;2023-04-23T04:06:39;101215.50;;;20.92;54.73
49397;BME280;35615;41.410;2.194;2023-04-23T04:09:06;101212.88;;;20.84;54.39
49397;BME280;35615;41.410;2.194;2023-04-23T04:11:34;101210.25;;;20.93;54.41
49397;BME280;35615;41.410;2.194;2023-04-23T04:14:02;101218.16;;;20.96;54.47
49397;BME280;35615;41.410;2.194;2023-04-23T04:16:29;101212.91;;;21.01;54.02
49397;BME280;35615;41.410;2.194;2023-04-23T04:18:57;101208.53;;;20.98;53.75
49397;BME280;35615;41.410;2.194;2023-04-23T04:21:24;101218.13;;;20.93;53.85
49397;BME280;35615;41.410;2.194;2023-04-23T04:23:51;101225.13;;;20.94;53.82
49397;BME280;35615;41.410;2.194;2023-04-23T04:26:19;101226.00;;;20.93;53.56
49397;BME280;35615;41.410;2.194;2023-04-23T04:28:46;101230.38;;;20.93;53.59
49397;BME280;35615;41.410;2.194;2023-04-23T04:31:13;101227.75;;;20.86;53.82
49397;BME280;35615;41.410;2.194;2023-04-23T04:33:42;101228.63;;;20.93;53.56
49397;BME280;35615;41.410;2.194;2023-04-23T04:36:09;101237.38;;;20.89;53.59
49397;BME280;35615;41.410;2.194;2023-04-23T04:38:36;101233.00;;;20.91;53.40
49397;BME280;35615;41.410;2.194;2023-04-23T04:41:03;101232.13;;;20.94;53.49
49397;BME280;35615;41.410;2.194;2023-04-23T04:43:31;101233.00;;;20.85;53.56
49397;BME280;35615;41.410;2.194;2023-04-23T04:45:59;101225.13;;;20.91;53.36
49397;BME280;35615;41.410;2.194;2023-04-23T04:48:26;101219.00;;;20.87;53.49
49397;BME280;35615;41.410;2.194;2023-04-23T04:50:54;101225.13;;;20.89;53.40
49397;BME280;35615;41.410;2.194;2023-04-23T04:53:21;101225.13;;;20.89;53.19
49397;BME280;35615;41.410;2.194;2023-04-23T04:55:48;101222.44;;;20.77;53.58
49397;BME280;35615;41.410;2.194;2023-04-23T04:58:15;101221.63;;;20.91;53.46
49397;BME280;35615;41.410;2.194;2023-04-23T05:00:43;101214.56;;;20.83;53.74
49397;BME280;35615;41.410;2.194;2023-04-23T05:03:11;101214.56;;;20.83;53.43
49397;BME280;35615;41.410;2.194;2023-04-23T05:05:40;101219.84;;;20.83;53.52
49397;BME280;35615;41.410;2.194;2023-04-23T05:08:07;101219.81;;;20.80;53.84
49397;BME280;35615;41.410;2.194;2023-04-23T05:10:35;101226.84;;;20.83;53.35
49397;BME280;35615;41.410;2.194;2023-04-23T05:13:02;101225.09;;;20.82;53.72
49397;BME280;35615;41.410;2.194;2023-04-23T05:15:29;101227.75;;;20.91;53.31
49397;BME280;35615;41.410;2.194;2023-04-23T05:17:56;101232.13;;;20.91;53.36
49397;BME280;35615;41.410;2.194;2023-04-23T05:20:23;101224.25;;;20.86;53.43
49397;BME280;35615;41.410;2.194;2023-04-23T05:22:51;101229.50;;;20.92;53.11
49397;BME280;35615;41.410;2.194;2023-04-23T05:25:20;101226.00;;;20.90;53.19
49397;BME280;35615;41.410;2.194;2023-04-23T05:27:47;101225.91;;;20.72;53.30
49397;BME280;35615;41.410;2.194;2023-04-23T05:30:14;101224.25;;;20.84;53.25
49397;BME280;35615;41.410;2.194;2023-04-23T05:32:41;101223.38;;;20.90;53.18
49397;BME280;35615;41.410;2.194;2023-04-23T05:35:09;101221.63;;;20.92;52.92
49397;BME280;35615;41.410;2.194;2023-04-23T05:37:37;101226.88;;;20.87;53.27
49397;BME280;35615;41.410;2.194;2023-04-23T05:40:05;101227.75;;;20.88;53.12
49397;BME280;35615;41.410;2.194;2023-04-23T05:42:36;101233.00;;;20.89;53.10
49397;BME280;35615;41.410;2.194;2023-04-23T05:45:03;101242.63;;;20.92;53.00
49397;BME280;35615;41.410;2.194;2023-04-23T05:47:34;101236.50;;;20.92;53.16
49397;BME280;35615;41.410;2.194;2023-04-23T05:50:01;101239.13;;;20.93;53.07
49397;BME280;35615;41.410;2.194;2023-04-23T05:52:28;101238.25;;;20.93;53.34
49397;BME280;35615;41.410;2.194;2023-04-23T05:54:59;101240.88;;;20.86;53.44
49397;BME280;35615;41.410;2.194;2023-04-23T05:57:26;101237.38;;;20.94;53.30
49397;BME280;35615;41.410;2.194;2023-04-23T05:59:53;101243.53;;;21.03;52.80
49397;BME280;35615;41.410;2.194;2023-04-23T06:02:20;101235.66;;;21.03;52.90
49397;BME280;35615;41.410;2.194;2023-04-23T06:04:50;101242.66;;;21.06;52.96
49397;BME280;35615;41.410;2.194;2023-04-23T06:07:18;101236.53;;;21.05;52.89
49397;BME280;35615;41.410;2.194;2023-04-23T06:09:46;101240.03;;;21.04;52.83
49397;BME280;35615;41.410;2.194;2023-04-23T06:12:13;101240.06;;;21.09;52.94
49397;BME280;35615;41.410;2.194;2023-04-23T06:14:40;101245.31;;;21.07;52.63
49397;BME280;35615;41.410;2.194;2023-04-23T06:17:08;101248.84;;;21.15;52.64
49397;BME280;35615;41.410;2.194;2023-04-23T06:19:35;101251.50;;;21.20;52.71
49397;BME280;35615;41.410;2.194;2023-04-23T06:22:02;101241.84;;;21.21;52.47
49397;BME280;35615;41.410;2.194;2023-04-23T06:24:29;101247.09;;;21.24;52.35
49397;BME280;35615;41.410;2.194;2023-04-23T06:26:57;101244.50;;;21.27;52.34
49397;BME280;35615;41.410;2.194;2023-04-23T06:29:26;101242.78;;;21.33;51.97
49397;BME280;35615;41.410;2.194;2023-04-23T06:32:03;101244.53;;;21.31;52.10
49397;BME280;35615;41.410;2.194;2023-04-23T06:34:39;101245.41;;;21.38;52.03
49397;BME280;35615;41.410;2.194;2023-04-23T06:37:25;101241.91;;;21.36;52.18
49397;BME280;35615;41.410;2.194;2023-04-23T06:39:56;101246.28;;;21.29;52.15
49397;BME280;35615;41.410;2.194;2023-04-23T06:42:24;101234.94;;;21.39;51.57
49397;BME280;35615;41.410;2.194;2023-04-23T06:45:10;101233.16;;;21.41;52.00
49397;BME280;35615;41.410;2.194;2023-04-23T06:47:38;101230.53;;;21.55;51.77
49397;BME280;35615;41.410;2.194;2023-04-23T06:50:06;101236.69;;;21.63;51.87
49397;BME280;35615;41.410;2.194;2023-04-23T06:52:34;101235.81;;;21.75;52.12
49397;BME280;35615;41.410;2.194;2023-04-23T06:55:02;101235.81;;;21.70;52.03
49397;BME280;35615;41.410;2.194;2023-04-23T06:57:29;101241.06;;;21.64;51.69
49397;BME280;35615;41.410;2.194;2023-04-23T06:59:56;101246.34;;;21.75;51.68
49397;BME280;35615;41.410;2.194;2023-04-23T07:02:28;101244.59;;;21.74;51.96
49397;BME280;35615;41.410;2.194;2023-04-23T07:04:55;101234.94;;;21.79;51.81
49397;BME280;35615;41.410;2.194;2023-04-23T07:07:24;101238.44;;;21.83;51.59
49397;BME280;35615;41.410;2.194;2023-04-23T07:09:51;101242.84;;;21.96;51.67
49397;BME280;35615;41.410;2.194;2023-04-23T07:12:19;101247.19;;;22.03;51.75
49397;BME280;35615;41.410;2.194;2023-04-23T07:14:46;101249.88;;;22.08;51.26
49397;BME280;35615;41.410;2.194;2023-04-23T07:17:13;101249.88;;;22.06;50.94
49397;BME280;35615;41.410;2.194;2023-04-23T07:19:40;101251.63;;;22.07;50.75
49397;BME280;35615;41.410;2.194;2023-04-23T07:22:08;101244.56;;;22.01;50.84
49397;BME280;35615;41.410;2.194;2023-04-23T07:24:38;101234.94;;;22.13;50.42
49397;BME280;35615;41.410;2.194;2023-04-23T07:27:09;101242.84;;;22.19;50.57
49397;BME280;35615;41.410;2.194;2023-04-23T07:29:36;101246.31;;;22.22;50.31
49397;BME280;35615;41.410;2.194;2023-04-23T07:32:04;101248.06;;;22.02;50.17
49397;BME280;35615;41.410;2.194;2023-04-23T07:34:31;101239.31;;;21.80;50.65
49397;BME280;35615;41.410;2.194;2023-04-23T07:36:59;101237.53;;;21.50;51.33
49397;BME280;35615;41.410;2.194;2023-04-23T07:39:26;101245.28;;;21.01;52.38
49397;BME280;35615;41.410;2.194;2023-04-23T07:41:53;101236.59;;;21.24;50.97
49397;BME280;35615;41.410;2.194;2023-04-23T07:44:21;101244.38;;;20.90;51.64
49397;BME280;35615;41.410;2.194;2023-04-23T07:46:49;101234.06;;;21.63;51.08
49397;BME280;35615;41.410;2.194;2023-04-23T07:49:19;101232.31;;;21.85;50.45
49397;BME280;35615;41.410;2.194;2023-04-23T07:51:47;101238.44;;;21.98;50.43
49397;BME280;35615;41.410;2.194;2023-04-23T07:54:14;101236.66;;;21.60;50.43
49397;BME280;35615;41.410;2.194;2023-04-23T07:56:42;101233.16;;;21.93;49.96
49397;BME280;35615;41.410;2.194;2023-04-23T07:59:09;101238.44;;;21.64;50.31
49397;BME280;35615;41.410;2.194;2023-04-23T08:01:38;101241.91;;;21.39;50.84
49397;BME280;35615;41.410;2.194;2023-04-23T08:04:07;101235.81;;;21.80;49.87
49397;BME280;35615;41.410;2.194;2023-04-23T08:06:35;101241.06;;;21.87;50.33
49397;BME280;35615;41.410;2.194;2023-04-23T08:09:02;101233.16;;;21.43;50.95
49397;BME280;35615;41.410;2.194;2023-04-23T08:11:32;101237.53;;;21.29;50.91
49397;BME280;35615;41.410;2.194;2023-04-23T08:13:59;101233.16;;;21.70;50.52
49397;BME280;35615;41.410;2.194;2023-04-23T08:16:27;101234.06;;;21.66;50.41
49397;BME280;35615;41.410;2.194;2023-04-23T08:19:00;101239.28;;;21.50;50.21
49397;BME280;35615;41.410;2.194;2023-04-23T08:21:32;101240.94;;;21.14;51.52
49397;BME280;35615;41.410;2.194;2023-04-23T08:23:59;101237.53;;;21.36;51.24
49397;BME280;35615;41.410;2.194;2023-04-23T08:26:29;101246.13;;;20.94;51.62
49397;BME280;35615;41.410;2.194;2023-04-23T08:28:57;101246.00;;;20.59;53.07
49397;BME280;35615;41.410;2.194;2023-04-23T08:31:26;101248.06;;;21.71;50.52
49397;BME280;35615;41.410;2.194;2023-04-23T08:33:54;101241.94;;;21.92;49.98
49397;BME280;35615;41.410;2.194;2023-04-23T08:36:22;101235.81;;;21.75;49.81
49397;BME280;35615;41.410;2.194;2023-04-23T08:38:49;101229.59;;;22.43;49.11
49397;BME280;35615;41.410;2.194;2023-04-23T08:41:17;101229.66;;;21.82;49.52
49397;BME280;35615;41.410;2.194;2023-04-23T08:44:16;101217.19;;;22.77;47.58
49397;BME280;35615;41.410;2.194;2023-04-23T08:46:44;101221.31;;;23.27;47.83
49397;BME280;35615;41.410;2.194;2023-04-23T08:49:14;101211.66;;;23.29;47.88
49397;BME280;35615;41.410;2.194;2023-04-23T08:51:49;101207.34;;;23.14;48.63
49397;BME280;35615;41.410;2.194;2023-04-23T08:54:24;101214.53;;;22.88;49.51
49397;BME280;35615;41.410;2.194;2023-04-23T08:56:55;101210.97;;;22.94;50.19
49397;BME280;35615;41.410;2.194;2023-04-23T08:59:30;101218.94;;;22.78;50.79
49397;BME280;35615;41.410;2.194;2023-04-23T09:02:00;101210.28;;;22.52;51.27
49397;BME280;35615;41.410;2.194;2023-04-23T09:04:34;101211.91;;;22.80;50.73
49397;BME280;35615;41.410;2.194;2023-04-23T09:07:05;101218.16;;;22.55;51.45
49397;BME280;35615;41.410;2.194;2023-04-23T09:09:38;101216.31;;;22.71;50.39
49397;BME280;35615;41.410;2.194;2023-04-23T09:12:07;101209.25;;;22.91;50.33
49397;BME280;35615;41.410;2.194;2023-04-23T09:14:35;101215.41;;;22.95;49.97
49397;BME280;35615;41.410;2.194;2023-04-23T09:17:06;101217.25;;;22.64;50.93
49397;BME280;35615;41.410;2.194;2023-04-23T09:19:34;101213.81;;;22.42;50.76
49397;BME280;35615;41.410;2.194;2023-04-23T09:22:05;101213.69;;;22.69;50.31
49397;BME280;35615;41.410;2.194;2023-04-23T09:24:33;101211.94;;;22.85;49.82
49397;BME280;35615;41.410;2.194;2023-04-23T09:27:00;101203.09;;;22.81;50.07
49397;BME280;35615;41.410;2.194;2023-04-23T09:29:29;101207.44;;;23.01;49.92
49397;BME280;35615;41.410;2.194;2023-04-23T09:32:06;101204.75;;;23.11;49.96
49397;BME280;35615;41.410;2.194;2023-04-23T09:34:34;101207.78;;;23.77;49.00
49397;BME280;35615;41.410;2.194;2023-04-23T09:37:06;101207.94;;;23.59;49.12
49397;BME280;35615;41.410;2.194;2023-04-23T09:39:38;101212.25;;;23.68;48.11
49397;BME280;35615;41.410;2.194;2023-04-23T09:42:06;101199.91;;;23.71;47.71
49397;BME280;35615;41.410;2.194;2023-04-23T09:44:36;101203.50;;;23.66;47.51
49397;BME280;35615;41.410;2.194;2023-04-23T09:47:07;101202.78;;;23.41;48.44
49397;BME280;35615;41.410;2.194;2023-04-23T09:49:47;101207.06;;;23.56;47.09
49397;BME280;35615;41.410;2.194;2023-04-23T09:52:15;101207.91;;;23.64;47.17
49397;BME280;35615;41.410;2.194;2023-04-23T09:54:43;101205.94;;;22.40;49.30
49397;BME280;35615;41.410;2.194;2023-04-23T09:57:12;101208.41;;;22.87;47.56
49397;BME280;35615;41.410;2.194;2023-04-23T09:59:39;101202.16;;;23.02;47.77
49397;BME280;35615;41.410;2.194;2023-04-23T10:02:17;101217.13;;;22.94;48.40
49397;BME280;35615;41.410;2.194;2023-04-23T10:04:49;101200.09;;;23.45;46.40
49397;BME280;35615;41.410;2.194;2023-04-23T10:07:29;101212.91;;;23.93;47.17
49397;BME280;35615;41.410;2.194;2023-04-23T10:09:58;101216.25;;;24.13;46.33
49397;BME280;35615;41.410;2.194;2023-04-23T10:12:26;101207.66;;;24.74;45.67
49397;BME280;35615;41.410;2.194;2023-04-23T10:15:13;101203.91;;;24.90;43.58
49397;BME280;35615;41.410;2.194;2023-04-23T10:17:41;101213.03;;;24.67;43.70
49397;BME280;35615;41.410;2.194;2023-04-23T10:20:09;101206.78;;;24.71;43.75
49397;BME280;35615;41.410;2.194;2023-04-23T10:22:39;101217.97;;;24.17;44.45
49397;BME280;35615;41.410;2.194;2023-04-23T10:25:11;101221.75;;;23.90;44.90
49397;BME280;35615;41.410;2.194;2023-04-23T10:27:40;101220.06;;;23.82;45.56
49397;BME280;35615;41.410;2.194;2023-04-23T10:30:20;101215.47;;;24.82;43.68
49397;BME280;35615;41.410;2.194;2023-04-23T10:32:49;101202.34;;;25.37;42.64
49397;BME280;35615;41.410;2.194;2023-04-23T10:35:19;101209.78;;;25.12;42.42
49397;BME280;35615;41.410;2.194;2023-04-23T10:37:47;101208.91;;;24.44;43.85
49397;BME280;35615;41.410;2.194;2023-04-23T10:40:29;101217.75;;;24.40;44.26
49397;BME280;35615;41.410;2.194;2023-04-23T10:42:58;101205.53;;;25.02;43.23
49397;BME280;35615;41.410;2.194;2023-04-23T10:45:32;101215.22;;;25.59;42.13
49397;BME280;35615;41.410;2.194;2023-04-23T10:48:05;101225.13;;;24.84;43.65
49397;BME280;35615;41.410;2.194;2023-04-23T10:50:35;101211.59;;;25.66;42.67
49397;BME280;35615;41.410;2.194;2023-04-23T10:53:04;101197.38;;;25.74;42.42
49397;BME280;35615;41.410;2.194;2023-04-23T10:55:31;101210.78;;;24.33;44.40
49397;BME280;35615;41.410;2.194;2023-04-23T10:58:06;101201.38;;;25.44;42.68
49397;BME280;35615;41.410;2.194;2023-04-23T11:00:44;101200.97;;;25.67;42.06
49397;BME280;35615;41.410;2.194;2023-04-23T11:06:03;101190.03;;;25.36;43.43
49397;BME280;35615;41.410;2.194;2023-04-23T11:08:33;101191.22;;;25.15;43.57
49397;BME280;35615;41.410;2.194;2023-04-23T11:11:05;101194.06;;;25.59;43.36
49397;BME280;35615;41.410;2.194;2023-04-23T11:13:33;101195.97;;;25.49;43.74
49397;BME280;35615;41.410;2.194;2023-04-23T11:16:37;101180.38;;;25.88;42.78
49397;BME280;35615;41.410;2.194;2023-04-23T11:19:08;101182.97;;;25.37;43.87
49397;BME280;35615;41.410;2.194;2023-04-23T11:24:26;101180.03;;;26.06;42.14
49397;BME280;35615;41.410;2.194;2023-04-23T11:26:53;101169.41;;;25.57;43.54
49397;BME280;35615;41.410;2.194;2023-04-23T11:29:22;101173.09;;;25.46;43.53
49397;BME280;35615;41.410;2.194;2023-04-23T11:31:50;101155.94;;;25.73;43.25
49397;BME280;35615;41.410;2.194;2023-04-23T11:34:29;101160.03;;;25.39;44.19
49397;BME280;35615;41.410;2.194;2023-04-23T11:36:58;101158.72;;;25.10;44.96
49397;BME280;35615;41.410;2.194;2023-04-23T11:39:26;101165.13;;;25.48;44.13
49397;BME280;35615;41.410;2.194;2023-04-23T11:41:54;101155.97;;;25.18;44.96
49397;BME280;35615;41.410;2.194;2023-04-23T11:44:23;101150.50;;;25.29;45.43
49397;BME280;35615;41.410;2.194;2023-04-23T11:46:51;101145.13;;;24.72;46.20
49397;BME280;35615;41.410;2.194;2023-04-23T11:49:18;101156.69;;;23.86;48.21
49397;BME280;35615;41.410;2.194;2023-04-23T11:51:50;101140.28;;;25.06;46.12
49397;BME280;35615;41.410;2.194;2023-04-23T11:54:18;101137.34;;;25.23;45.77
49397;BME280;35615;41.410;2.194;2023-04-23T11:56:52;101135.06;;;25.01;46.09
49397;BME280;35615;41.410;2.194;2023-04-23T11:59:19;101140.88;;;24.61;47.37
49397;BME280;35615;41.410;2.194;2023-04-23T12:01:49;101142.00;;;25.08;45.88
49397;BME280;35615;41.410;2.194;2023-04-23T12:04:27;101124.88;;;24.74;46.71
49397;BME280;35615;41.410;2.194;2023-04-23T12:06:56;101127.69;;;24.58;47.21
49397;BME280;35615;41.410;2.194;2023-04-23T12:09:26;101117.38;;;24.39;47.14
49397;BME280;35615;41.410;2.194;2023-04-23T12:11:54;101126.88;;;23.78;48.61
49397;BME280;35615;41.410;2.194;2023-04-23T12:14:26;101124.78;;;24.78;46.83
49397;BME280;35615;41.410;2.194;2023-04-23T12:17:01;101122.09;;;24.12;47.76
49397;BME280;35615;41.410;2.194;2023-04-23T12:19:34;101115.31;;;23.90;48.64
49397;BME280;35615;41.410;2.194;2023-04-23T12:22:02;101116.63;;;24.27;47.92
49397;BME280;35615;41.410;2.194;2023-04-23T12:24:46;101113.41;;;24.72;46.94
49397;BME280;35615;41.410;2.194;2023-04-23T12:27:15;101108.22;;;24.67;47.28
49397;BME280;35615;41.410;2.194;2023-04-23T12:30:01;101112.22;;;23.43;49.94
49397;BME280;35615;41.410;2.194;2023-04-23T12:32:32;101099.22;;;24.79;47.06
49397;BME280;35615;41.410;2.194;2023-04-23T12:35:00;101091.00;;;24.40;47.79
49397;BME280;35615;41.410;2.194;2023-04-23T12:37:29;101084.22;;;24.18;48.18
49397;BME280;35615;41.410;2.194;2023-04-23T12:39:56;101089.09;;;23.74;49.36
49397;BME280;35615;41.410;2.194;2023-04-23T12:42:27;101083.06;;;24.39;47.89
49397;BME280;35615;41.410;2.194;2023-04-23T12:44:54;101075.47;;;24.11;48.83
49397;BME280;35615;41.410;2.194;2023-04-23T12:47:22;101077.16;;;24.15;48.56
49397;BME280;35615;41.410;2.194;2023-04-23T12:49:49;101061.50;;;24.69;47.51
49397;BME280;35615;41.410;2.194;2023-04-23T12:52:19;101063.78;;;24.33;47.81
49397;BME280;35615;41.410;2.194;2023-04-23T12:54:47;101050.13;;;25.21;45.86
49397;BME280;35615;41.410;2.194;2023-04-23T12:57:18;101043.06;;;25.22;46.09
49397;BME280;35615;41.410;2.194;2023-04-23T12:59:51;101048.06;;;25.37;44.98
49397;BME280;35615;41.410;2.194;2023-04-23T13:02:21;101045.75;;;25.20;45.13
49397;BME280;35615;41.410;2.194;2023-04-23T13:04:49;101031.97;;;25.49;44.99
49397;BME280;35615;41.410;2.194;2023-04-23T13:07:20;101032.72;;;25.08;45.19